Portada
METAR-TAF:

METAR-TAF

Aeroports :

Ghat, Líbia

latitud: 25-08N, longitud: 010-09E, altitud: 699 m

METAR: manca

Hora: 20:46 (18:46 UTC)

Pronòstic

L'informe es va fer fa 1 hora i 46 minuts, a les 17:00 UTC
Pronòstic vàlid del 16 a les 18 UTC al 17 a les 18 UTC
Vent 10 kt del Sud/Sud-Oest
Visibilitat 10 km o més
sense núvols per sota de 1500 mi sense presència de cumulonimbus.
Evolucionant progressivament
l' 17 a les 02 UTC al 17 a les 04 UTC
Vent 2 kt amb direcció variable

TAF: HLGT 161700Z 1618/1718 20010KT CAVOK BECMG 1702/1704 VRB02KT

Observacions i pronòstics meteorològics de més de 4000 aeroports (METAR i TAF).

Les estacions disponibles són els punts grocs i vermells al mapa.

Posi el ratolí al punt desitjat per veure el nom de l'estació.

Feu clic per veure les observacions i els pronòstics meteorològics.

Per canviar el mapa: feu clic els botons verds amb una creu de color negre per apropar; al botó verd amb un guió per allunyar la imatge; o en les fletxes verdes per a mapes adjacents.


METAR-TAF: